Time;durP1;ratioP1;P1;durP2;ratioP2;P2;SDS_P1;SDS_P2;PMS_P1;PMS_P2;Temp;Humidity;BMP_temperature;BMP_pressure;BME280_temperature;BME280_humidity;BME280_pressure;Samples;Min_cycle;Max_cycle;Signal;HPM_P1;HPM_P2
2021/06/10 00:01:13;;;;;;;13.68;12.32;;;;;;;21.64;72.50;100644.00;4755141;30;20056;-76
2021/06/10 00:04:17;;;;;;;12.32;11.13;;;;;;;21.62;72.77;100648.84;4755081;30;20056;-79
2021/06/10 00:07:22;;;;;;;14.57;13.38;;;;;;;21.53;72.76;100644.56;4755014;30;20056;-81
2021/06/10 00:10:29;;;;;;;18.20;11.95;;;;;;;21.56;73.07;100636.81;4754988;30;20484;-78
2021/06/10 00:13:33;;;;;;;13.90;12.50;;;;;;;21.48;72.84;100630.66;4755166;30;20052;-80
2021/06/10 00:16:37;;;;;;;14.98;12.70;;;;;;;21.52;72.72;100627.34;4755030;30;20052;-79
2021/06/10 00:19:41;;;;;;;14.85;13.40;;;;;;;21.60;72.16;100640.84;4754551;30;20052;-76
2021/06/10 00:22:46;;;;;;;16.45;12.38;;;;;;;21.38;72.37;100640.03;4754726;30;20073;-77
2021/06/10 00:25:51;;;;;;;15.15;13.68;;;;;;;21.29;72.41;100638.47;4753158;30;20596;-79
2021/06/10 00:28:55;;;;;;;15.82;14.23;;;;;;;21.21;72.07;100641.34;4753036;30;20060;-79
2021/06/10 00:31:59;;;;;;;16.08;14.40;;;;;;;20.94;73.18;100643.97;4754610;30;20056;-81
2021/06/10 00:35:05;;;;;;;16.65;15.13;;;;;;;20.85;73.16;100646.00;4754555;30;20060;-74
2021/06/10 00:38:09;;;;;;;15.95;14.30;;;;;;;20.86;73.31;100635.94;4754428;30;20060;-80
2021/06/10 00:41:14;;;;;;;17.88;15.48;;;;;;;20.80;73.42;100634.81;4754433;30;20064;-77
2021/06/10 00:44:19;;;;;;;15.35;13.80;;;;;;;20.87;72.98;100632.16;4754389;30;20048;-81
2021/06/10 00:47:23;;;;;;;16.35;13.43;;;;;;;21.00;73.00;100641.34;4776929;30;20055;-79
2021/06/10 00:50:43;;;;;;;14.48;13.05;;;;;;;21.05;72.53;100644.34;4790135;30;20051;-74
2021/06/10 00:53:48;;;;;;;13.93;12.63;;;;;;;21.16;72.48;100640.25;4789851;30;20051;-75
2021/06/10 00:56:53;;;;;;;15.20;13.57;;;;;;;21.23;72.00;100639.25;4789103;29;20043;-74
2021/06/10 00:59:58;;;;;;;15.68;13.90;;;;;;;21.22;71.85;100639.47;4789710;30;20047;-80
2021/06/10 01:03:03;;;;;;;15.40;13.88;;;;;;;21.23;72.02;100639.25;4789909;30;20055;-76
2021/06/10 01:06:20;;;;;;;15.32;13.85;;;;;;;21.19;71.99;100642.59;4788817;29;20051;-78
2021/06/10 01:09:52;;;;;;;15.15;13.32;;;;;;;21.20;72.08;100638.81;4778595;30;20059;-79
2021/06/10 01:12:59;;;;;;;21.17;15.02;;;;;;;21.09;72.53;100636.59;4789453;30;20047;-76
2021/06/10 01:16:07;;;;;;;15.80;14.10;;;;;;;21.11;72.79;100637.28;4789449;30;20212;-79
2021/06/10 01:19:21;;;;;;;14.85;13.48;;;;;;;21.11;72.64;100627.19;4789421;30;20066;-79
2021/06/10 01:22:25;;;;;;;;;;;;;;;21.03;72.45;100630.03;4778671;30;20467;-78
2021/06/10 01:25:37;;;;;;;17.95;16.17;;;;;;;21.04;72.29;100628.13;4789579;30;19929;-80
2021/06/10 01:28:44;;;;;;;16.25;14.70;;;;;;;20.98;72.65;100631.66;4789518;30;20391;-77
2021/06/10 01:31:50;;;;;;;17.65;15.85;;;;;;;20.96;72.96;100631.00;4789281;30;20047;-77
2021/06/10 01:34:56;;;;;;;17.38;15.80;;;;;;;20.95;72.89;100632.88;4778155;30;20056;-76
2021/06/10 01:38:01;;;;;;;17.38;15.70;;;;;;;20.82;73.20;100626.44;4788932;30;20051;-81
2021/06/10 01:41:06;;;;;;;16.33;14.85;;;;;;;20.83;73.33;100620.81;4789298;30;20402;-77
2021/06/10 01:44:12;;;;;;;18.23;16.25;;;;;;;20.81;73.69;100627.50;4789152;30;20417;-81
2021/06/10 01:47:19;;;;;;;18.98;17.02;;;;;;;20.74;73.30;100627.41;4788513;30;20055;-75
2021/06/10 01:50:24;;;;;;;17.73;16.05;;;;;;;20.69;73.54;100624.41;4789041;30;20059;-80
2021/06/10 01:53:20;;;;;;;18.15;16.23;;;;;;;20.67;73.50;100629.22;4794714;29;20475;-80
2021/06/10 01:56:25;;;;;;;19.55;17.65;;;;;;;20.64;73.62;100621.44;4788938;30;20059;-78
2021/06/10 01:59:33;;;;;;;20.00;17.25;;;;;;;20.65;73.75;100632.16;4788924;30;20056;-79
2021/06/10 02:02:39;;;;;;;19.48;17.73;;;;;;;20.50;73.66;100633.22;4788880;30;20043;-81
2021/06/10 02:05:44;;;;;;;20.02;17.77;;;;;;;20.21;74.69;100622.34;4789059;30;20487;-81
2021/06/10 02:08:50;;;;;;;19.83;18.02;;;;;;;20.08;74.83;100621.13;4790755;29;20047;-80
2021/06/10 02:11:55;;;;;;;21.30;18.40;;;;;;;20.11;74.83;100628.94;4792578;30;20047;-78
2021/06/10 02:15:04;;;;;;;20.63;18.63;;;;;;;20.07;74.40;100632.25;4792755;30;20047;-76
2021/06/10 02:18:08;;;;;;;24.48;18.33;;;;;;;20.00;74.49;100618.50;4792545;30;20399;-75
2021/06/10 02:21:15;;;;;;;21.20;18.98;;;;;;;19.90;74.56;100644.38;4792673;30;20052;-75
2021/06/10 02:24:19;;;;;;;20.75;18.90;;;;;;;19.88;74.58;100641.81;4780732;30;20066;-79
2021/06/10 02:27:24;;;;;;;21.80;19.70;;;;;;;19.94;74.37;100641.06;4792046;30;20391;-76
2021/06/10 02:30:28;;;;;;;20.13;18.02;;;;;;;19.98;74.07;100647.81;4792230;30;20051;-76
2021/06/10 02:33:33;;;;;;;20.25;18.33;;;;;;;19.92;74.20;100645.84;4792191;30;20063;-74
2021/06/10 02:36:40;;;;;;;21.65;19.45;;;;;;;19.82;74.63;100652.63;4792172;30;20110;-75
2021/06/10 02:39:47;;;;;;;22.02;19.73;;;;;;;19.68;75.47;100659.72;4791610;30;20055;-75
2021/06/10 02:42:55;;;;;;;21.35;19.20;;;;;;;19.51;75.85;100658.19;4791851;30;20054;-80
2021/06/10 02:46:01;;;;;;;22.33;20.13;;;;;;;19.44;76.59;100657.25;4791998;30;20044;-76
2021/06/10 02:49:07;;;;;;;26.08;20.38;;;;;;;19.40;76.97;100659.50;4792204;30;20472;-75
2021/06/10 02:52:14;;;;;;;22.48;20.38;;;;;;;19.29;76.99;100657.19;4791959;30;20396;-76
2021/06/10 02:55:19;;;;;;;22.30;20.15;;;;;;;19.22;77.45;100650.78;4791855;30;20055;-74
2021/06/10 02:58:25;;;;;;;22.63;20.42;;;;;;;19.20;77.23;100658.28;4780443;30;20059;-76
2021/06/10 03:01:31;;;;;;;23.40;21.10;;;;;;;19.18;77.58;100670.38;4791747;30;20055;-75
2021/06/10 03:04:36;;;;;;;21.80;19.55;;;;;;;19.19;77.75;100669.34;4791931;30;20404;-75
2021/06/10 03:07:42;;;;;;;22.55;20.42;;;;;;;19.11;78.05;100664.00;4791650;30;20059;-74
2021/06/10 03:10:48;;;;;;;21.48;19.35;;;;;;;19.11;78.30;100670.25;4791554;30;20047;-76
2021/06/10 03:13:53;;;;;;;20.55;18.65;;;;;;;19.10;78.07;100671.28;4791521;30;20047;-75
2021/06/10 03:16:58;;;;;;;21.58;19.48;;;;;;;19.05;77.92;100667.41;4791449;30;20388;-75
2021/06/10 03:20:08;;;;;;;21.98;19.88;;;;;;;18.99;77.89;100660.81;4791015;29;20047;-79
2021/06/10 03:23:13;;;;;;;21.30;18.95;;;;;;;19.03;78.12;100661.31;4780258;30;20043;-74
2021/06/10 03:26:20;;;;;;;24.70;18.63;;;;;;;19.00;78.05;100667.97;4791538;30;20051;-76
2021/06/10 03:29:25;;;;;;;20.05;18.08;;;;;;;19.11;77.85;100664.00;4791228;30;20404;-75
2021/06/10 03:32:30;;;;;;;19.75;17.92;;;;;;;19.08;77.49;100661.63;4791451;30;20055;-74
2021/06/10 03:35:36;;;;;;;19.90;17.30;;;;;;;19.02;77.96;100670.50;4791133;30;20059;-74
2021/06/10 03:38:42;;;;;;;19.50;17.50;;;;;;;19.03;77.78;100672.19;4791133;30;20051;-81
2021/06/10 03:41:48;;;;;;;19.75;17.83;;;;;;;18.97;77.90;100667.47;4791089;30;20047;-80
2021/06/10 03:44:53;;;;;;;21.35;17.45;;;;;;;18.91;78.11;100676.38;4791066;30;20047;-80
2021/06/10 03:47:57;;;;;;;19.38;17.48;;;;;;;18.91;77.91;100671.78;4790339;30;20059;-73
2021/06/10 03:51:08;;;;;;;18.63;16.83;;;;;;;18.93;77.97;100683.31;4791006;30;20055;-76
2021/06/10 03:54:12;;;;;;;18.50;16.90;;;;;;;18.94;77.91;100676.00;4790931;30;20047;-80
2021/06/10 03:57:16;;;;;;;20.02;16.92;;;;;;;18.87;77.45;100678.59;4779496;30;20051;-78
2021/06/10 04:00:21;;;;;;;17.23;15.70;;;;;;;18.91;77.68;100677.22;4773133;30;20480;-78
2021/06/10 04:03:25;;;;;;;19.02;17.00;;;;;;;18.90;77.29;100682.81;4772854;30;20477;-79
2021/06/10 04:06:33;;;;;;;17.88;16.08;;;;;;;18.95;77.03;100685.84;4772773;30;20052;-76
2021/06/10 04:09:38;;;;;;;18.92;16.77;;;;;;;19.03;76.47;100678.50;4773034;30;20051;-79
2021/06/10 04:12:42;;;;;;;18.73;16.63;;;;;;;18.94;76.65;100685.00;4761610;30;20488;-79
2021/06/10 04:15:47;;;;;;;21.85;17.27;;;;;;;18.83;77.24;100680.00;4772078;30;20059;-77
2021/06/10 04:18:52;;;;;;;18.30;16.48;;;;;;;18.92;77.16;100687.06;4761539;30;20055;-80
2021/06/10 04:21:56;;;;;;;19.52;16.63;;;;;;;18.95;76.66;100688.56;4761442;30;20396;-80
2021/06/10 04:25:00;;;;;;;18.35;16.45;;;;;;;19.09;76.53;100698.66;4772407;30;20056;-77
2021/06/10 04:28:05;;;;;;;16.23;14.70;;;;;;;19.36;75.85;100692.69;4772604;30;20060;-80
2021/06/10 04:31:09;;;;;;;16.95;15.00;;;;;;;19.51;75.02;100695.47;4771812;30;20414;-79
2021/06/10 04:34:14;;;;;;;17.98;15.40;;;;;;;19.82;74.21;100696.22;4772499;30;20055;-81
2021/06/10 04:37:18;;;;;;;16.83;14.85;;;;;;;19.97;72.93;100700.63;4772173;30;20048;-79
2021/06/10 04:40:23;;;;;;;17.10;15.32;;;;;;;20.13;72.77;100694.16;4785218;30;20407;-81
2021/06/10 04:43:27;;;;;;;17.27;15.23;;;;;;;20.45;71.53;100691.06;4772392;30;20043;-80
2021/06/10 04:46:33;;;;;;;16.38;14.75;;;;;;;20.65;70.80;100694.03;4771273;30;20039;-75
2021/06/10 04:49:38;;;;;;;15.85;14.25;;;;;;;20.93;69.73;100697.75;4785659;29;20047;-74
2021/06/10 04:52:43;;;;;;;16.33;14.60;;;;;;;21.21;68.52;100685.03;4789806;30;20047;-74
2021/06/10 04:55:47;;;;;;;17.13;14.00;;;;;;;21.52;67.63;100694.78;4778703;30;20043;-79
2021/06/10 04:58:51;;;;;;;15.95;14.25;;;;;;;21.87;66.44;100694.66;4789498;30;20051;-81
2021/06/10 05:01:56;;;;;;;40.88;36.55;;;;;;;22.24;65.33;100693.44;4789655;30;20039;-78
2021/06/10 05:05:00;;;;;;;17.35;15.45;;;;;;;22.45;63.99;100696.06;4789617;30;20464;-76
2021/06/10 05:08:04;;;;;;;14.45;12.23;;;;;;;22.65;63.26;100687.97;4789610;30;20043;-81
2021/06/10 05:11:09;;;;;;;12.77;11.27;;;;;;;23.17;62.14;100690.88;4777937;29;20039;-82
2021/06/10 05:14:12;;;;;;;12.25;11.00;;;;;;;23.67;60.80;100697.69;4760689;30;20052;-78
2021/06/10 05:17:18;;;;;;;13.25;11.05;;;;;;;24.00;59.06;100696.81;4771590;30;20385;-75
2021/06/10 05:20:23;;;;;;;12.52;10.82;;;;;;;24.57;57.49;100695.00;4771777;30;20393;-76
2021/06/10 05:23:28;;;;;;;16.45;10.95;;;;;;;25.01;55.82;100683.19;4771806;30;20056;-78
2021/06/10 05:26:32;;;;;;;11.25;9.90;;;;;;;25.98;53.36;100693.66;4771585;30;20047;-76
2021/06/10 05:29:37;;;;;;;10.30;9.30;;;;;;;26.94;50.63;100689.19;4771646;30;20055;-77
2021/06/10 05:32:42;;;;;;;10.88;8.82;;;;;;;28.05;48.52;100688.50;4772045;30;20063;-74
2021/06/10 05:35:46;;;;;;;9.52;8.35;;;;;;;29.80;43.99;100687.66;4771333;30;20075;-73
2021/06/10 05:38:51;;;;;;;10.40;8.63;;;;;;;30.57;42.07;100684.91;4771216;30;20058;-74
2021/06/10 05:41:56;;;;;;;8.93;7.30;;;;;;;31.90;39.68;100684.94;4771105;30;20062;-74
2021/06/10 05:45:00;;;;;;;9.98;7.47;;;;;;;33.10;37.87;100694.25;4771407;30;20062;-73
2021/06/10 05:48:06;;;;;;;7.90;7.10;;;;;;;33.05;37.38;100695.09;4770488;30;20153;-74
2021/06/10 05:51:10;;;;;;;8.63;7.70;;;;;;;33.57;36.79;100689.34;4771148;30;20054;-74
2021/06/10 05:54:15;;;;;;;7.70;6.93;;;;;;;34.88;34.59;100685.47;4771120;30;20368;-72
2021/06/10 05:57:20;;;;;;;7.53;6.80;;;;;;;36.45;32.45;100685.88;4771080;30;20060;-72
2021/06/10 06:00:24;;;;;;;7.28;6.13;;;;;;;37.35;31.05;100688.66;4771361;29;20058;-73
2021/06/10 06:03:30;;;;;;;7.13;6.50;;;;;;;38.87;28.88;100687.56;4770183;30;20059;-77
2021/06/10 06:06:35;;;;;;;8.52;6.28;;;;;;;39.12;28.18;100691.78;4770930;30;20063;-75
2021/06/10 06:09:39;;;;;;;9.50;6.32;;;;;;;39.40;27.87;100696.22;4784883;29;20054;-75
2021/06/10 06:12:45;;;;;;;8.75;7.15;;;;;;;39.00;28.87;100707.22;4785672;30;20059;-76
2021/06/10 06:15:52;;;;;;;8.48;6.82;;;;;;;39.41;28.42;100706.28;4788793;30;20066;-75
2021/06/10 06:18:58;;;;;;;14.50;7.75;;;;;;;39.95;27.42;100711.69;4777736;30;20074;-76
2021/06/10 06:22:04;;;;;;;9.73;6.85;;;;;;;41.05;26.59;100712.56;4788603;30;20050;-73
2021/06/10 06:25:10;;;;;;;12.13;6.97;;;;;;;40.56;27.04;100713.72;4788440;30;20407;-75
2021/06/10 06:28:14;;;;;;;9.18;6.30;;;;;;;40.49;26.81;100721.00;4786344;30;20058;-74
2021/06/10 06:31:19;;;;;;;8.95;7.47;;;;;;;39.90;26.42;100713.81;4786076;30;20066;-74
2021/06/10 06:34:23;;;;;;;7.97;7.10;;;;;;;40.38;26.26;100722.38;4786063;30;20070;-74
2021/06/10 06:37:28;;;;;;;7.85;7.00;;;;;;;40.94;24.96;100719.66;4786001;30;20518;-73
2021/06/10 06:40:33;;;;;;;6.70;5.97;;;;;;;40.82;25.31;100723.09;4786092;30;20063;-74
2021/06/10 06:43:37;;;;;;;8.02;6.70;;;;;;;40.35;25.14;100721.03;4787643;30;20070;-73
2021/06/10 06:46:42;;;;;;;8.45;6.90;;;;;;;37.97;28.15;100733.09;4788037;30;20058;-74
2021/06/10 06:49:46;;;;;;;10.52;7.18;;;;;;;36.79;29.75;100736.19;4788497;30;20131;-73
2021/06/10 06:52:50;;;;;;;8.63;6.93;;;;;;;36.73;30.42;100728.97;4788194;30;20074;-73
2021/06/10 06:55:58;;;;;;;7.28;6.57;;;;;;;36.30;30.00;100728.84;4790354;29;20062;-73
2021/06/10 06:59:04;;;;;;;9.65;6.63;;;;;;;36.50;29.56;100734.25;4780570;30;20066;-73
2021/06/10 07:02:09;;;;;;;7.30;6.55;;;;;;;36.49;29.76;100731.78;4791314;30;20396;-74
2021/06/10 07:05:13;;;;;;;11.32;6.38;;;;;;;36.45;30.63;100739.03;4791326;30;20128;-73
2021/06/10 07:08:17;;;;;;;12.80;7.47;;;;;;;36.07;30.71;100740.00;4791228;30;20062;-73
2021/06/10 07:11:22;;;;;;;14.25;9.07;;;;;;;36.63;29.71;100743.06;4791178;30;20078;-73
2021/06/10 07:14:26;;;;;;;11.13;9.07;;;;;;;37.85;28.41;100749.53;4791107;30;20066;-74
2021/06/10 07:17:30;;;;;;;8.93;8.02;;;;;;;39.92;25.34;100748.06;4790830;30;20062;-74
2021/06/10 07:20:35;;;;;;;11.85;8.45;;;;;;;40.42;24.93;100746.75;4791062;30;20062;-73
2021/06/10 07:23:39;;;;;;;10.57;9.30;;;;;;;40.24;25.10;100753.44;4790906;30;20119;-74
2021/06/10 07:26:44;;;;;;;10.73;9.70;;;;;;;39.36;25.95;100751.38;4790979;30;20054;-73
2021/06/10 07:29:49;;;;;;;10.70;9.70;;;;;;;38.70;26.63;100744.31;4790943;30;20058;-73
2021/06/10 07:32:54;;;;;;;12.60;11.30;;;;;;;38.07;27.52;100760.94;4790884;30;20531;-73
2021/06/10 07:35:58;;;;;;;12.20;11.00;;;;;;;36.00;30.86;100757.09;4790917;30;20063;-74
2021/06/10 07:39:07;;;;;;;12.10;10.95;;;;;;;35.30;31.11;100761.19;4790662;30;20055;-72
2021/06/10 07:42:12;;;;;;;13.68;11.27;;;;;;;34.31;33.16;100766.78;4790716;30;20043;-73
2021/06/10 07:45:17;;;;;;;13.50;11.30;;;;;;;33.49;35.07;100770.59;4790561;30;20407;-75
2021/06/10 07:48:21;;;;;;;13.35;11.95;;;;;;;33.60;34.69;100775.13;4790034;30;20047;-73
2021/06/10 07:51:25;;;;;;;12.23;10.95;;;;;;;34.01;34.19;100773.19;4790488;30;20047;-73
2021/06/10 07:54:29;;;;;;;14.27;12.85;;;;;;;34.12;33.88;100771.28;4779056;30;20395;-73
2021/06/10 07:57:35;;;;;;;15.63;11.98;;;;;;;36.22;30.69;100774.22;4779306;30;20384;-73
2021/06/10 08:00:39;;;;;;;12.32;11.02;;;;;;;36.35;30.62;100765.16;4790407;30;20055;-74
2021/06/10 08:03:45;;;;;;;21.80;11.60;;;;;;;36.54;30.33;100766.09;4790151;30;20043;-73
2021/06/10 08:06:50;;;;;;;15.55;10.65;;;;;;;37.70;29.69;100764.59;4779299;30;20055;-73
2021/06/10 08:09:56;;;;;;;17.50;11.73;;;;;;;36.54;30.63;100768.09;4790213;30;20047;-73
2021/06/10 08:13:00;;;;;;;17.25;12.32;;;;;;;35.29;33.22;100777.09;4790111;30;20055;-74
2021/06/10 08:16:05;;;;;;;16.98;14.13;;;;;;;33.64;34.91;100775.41;4790159;30;20043;-73
2021/06/10 08:19:10;;;;;;;21.70;13.45;;;;;;;33.33;36.20;100780.84;4789929;30;20491;-73
2021/06/10 08:22:14;;;;;;;16.52;13.98;;;;;;;33.38;35.95;100774.50;4778931;30;20047;-74
2021/06/10 08:25:19;;;;;;;13.40;11.52;;;;;;;33.74;35.18;100767.91;4778871;30;20051;-73
2021/06/10 08:28:24;;;;;;;16.50;11.10;;;;;;;34.33;34.86;100770.97;4789876;30;20051;-72
2021/06/10 08:31:30;;;;;;;15.93;11.65;;;;;;;33.98;34.32;100768.16;4790071;30;20476;-73
2021/06/10 08:34:34;;;;;;;12.65;11.20;;;;;;;33.75;33.62;100774.31;4778770;30;20047;-74
2021/06/10 08:37:39;;;;;;;13.82;11.27;;;;;;;33.78;33.31;100776.50;4778601;30;20059;-73
2021/06/10 08:40:43;;;;;;;16.33;12.45;;;;;;;33.43;34.83;100774.47;4789687;30;20039;-74
2021/06/10 08:43:48;;;;;;;15.30;11.88;;;;;;;33.26;35.29;100771.09;4789895;30;20480;-73
2021/06/10 08:46:53;;;;;;;13.15;11.75;;;;;;;33.05;35.91;100774.94;4789193;30;20059;-73
2021/06/10 08:50:00;;;;;;;13.75;9.93;;;;;;;33.23;36.01;100763.31;4789535;30;20399;-73
2021/06/10 08:53:07;;;;;;;18.42;11.82;;;;;;;33.34;36.19;100768.63;4778446;30;20122;-73
2021/06/10 08:56:12;;;;;;;17.45;12.52;;;;;;;33.29;36.25;100762.19;4789225;30;20055;-74
2021/06/10 08:59:16;;;;;;;14.70;12.27;;;;;;;33.29;35.91;100767.75;4778269;30;20062;-73
2021/06/10 09:02:21;;;;;;;12.68;11.48;;;;;;;32.39;35.93;100776.47;4789371;30;20468;-73
2021/06/10 09:05:27;;;;;;;14.07;10.82;;;;;;;32.00;38.46;100764.75;4789141;30;20059;-73
2021/06/10 09:08:37;;;;;;;15.50;14.10;;;;;;;32.06;37.21;100772.88;4778001;30;20059;-73
2021/06/10 09:11:42;;;;;;;15.00;13.48;;;;;;;30.96;38.81;100777.22;4789117;30;20048;-73
2021/06/10 09:14:56;;;;;;;15.93;10.80;;;;;;;30.80;38.66;100774.22;4788861;30;20653;-73
2021/06/10 09:18:02;;;;;;;12.13;9.65;;;;;;;31.14;37.92;100780.50;4777509;29;20047;-73
2021/06/10 09:21:06;;;;;;;12.60;11.20;;;;;;;30.94;38.42;100780.25;4789108;30;20190;-73
2021/06/10 09:24:27;;;;;;;12.00;10.52;;;;;;;30.63;39.14;100786.44;4788917;30;20052;-73
2021/06/10 09:27:31;;;;;;;14.32;12.93;;;;;;;30.55;39.66;100784.09;4788727;30;20043;-73
2021/06/10 09:30:38;;;;;;;15.32;11.40;;;;;;;30.31;40.86;100793.69;4777820;30;20051;-73
2021/06/10 09:33:44;;;;;;;12.50;11.38;;;;;;;30.04;40.31;100783.31;4777936;30;20055;-73
2021/06/10 09:36:49;;;;;;;14.52;11.85;;;;;;;29.60;40.86;100786.91;4777713;30;20476;-73
2021/06/10 09:39:55;;;;;;;15.18;13.57;;;;;;;29.73;41.03;100792.13;4777568;30;20063;-73
2021/06/10 09:43:00;;;;;;;14.68;12.50;;;;;;;29.77;41.24;100787.81;4788745;30;20055;-74
2021/06/10 09:46:04;;;;;;;12.43;11.13;;;;;;;30.31;40.65;100788.16;4788740;30;20055;-74
2021/06/10 09:49:08;;;;;;;12.80;11.52;;;;;;;30.39;39.74;100782.22;4788556;30;20051;-74
2021/06/10 09:52:13;;;;;;;11.75;10.65;;;;;;;30.12;39.57;100782.84;4777331;30;20399;-74
2021/06/10 09:55:45;;;;;;;15.52;12.40;;;;;;;29.82;39.73;100773.22;4788795;30;20055;-73
2021/06/10 09:58:55;;;;;;;11.23;10.20;;;;;;;29.41;42.38;100774.38;4788140;30;20051;-75
2021/06/10 10:02:18;;;;;;;11.02;9.88;;;;;;;29.50;41.49;100779.25;4788487;30;20055;-75
2021/06/10 10:05:25;;;;;;;13.70;9.57;;;;;;;29.30;42.90;100784.41;4788465;30;20483;-74
2021/06/10 10:08:31;;;;;;;14.65;11.20;;;;;;;29.34;40.58;100784.75;4788567;30;20062;-73
2021/06/10 10:11:35;;;;;;;14.38;9.40;;;;;;;29.69;40.30;100773.50;4788570;30;20059;-74
2021/06/10 10:14:40;;;;;;;13.00;10.90;;;;;;;30.04;40.03;100774.16;4777277;30;20070;-73
2021/06/10 10:17:47;;;;;;;9.35;8.43;;;;;;;30.33;40.52;100766.56;4788465;30;20396;-76
2021/06/10 10:20:52;;;;;;;11.05;8.88;;;;;;;30.32;40.92;100776.00;4777585;30;20062;-75
2021/06/10 10:24:00;;;;;;;16.85;12.32;;;;;;;30.24;40.02;100764.22;4788288;30;20054;-73
2021/06/10 10:27:09;;;;;;;14.65;10.98;;;;;;;30.05;41.53;100776.66;4788042;30;20047;-73
2021/06/10 10:30:15;;;;;;;13.00;11.70;;;;;;;30.33;40.85;100766.56;4789237;29;20047;-73
2021/06/10 10:33:22;;;;;;;16.58;12.52;;;;;;;30.42;39.55;100759.56;4791827;30;20480;-74
2021/06/10 10:36:30;;;;;;;11.38;10.07;;;;;;;30.48;39.93;100747.44;4791729;30;20051;-73
2021/06/10 10:39:36;;;;;;;13.27;10.65;;;;;;;30.44;39.78;100746.28;4770004;30;20059;-75
2021/06/10 10:42:41;;;;;;;10.63;9.52;;;;;;;30.36;40.91;100741.16;4791684;30;20391;-74
2021/06/10 10:45:51;;;;;;;10.35;9.27;;;;;;;30.64;40.27;100743.78;4791567;30;20068;-75
2021/06/10 10:48:59;;;;;;;12.05;9.15;;;;;;;30.70;39.96;100749.13;4773738;30;20059;-75
2021/06/10 10:52:16;;;;;;;11.02;10.00;;;;;;;30.21;39.74;100748.13;4773596;30;20055;-73
2021/06/10 10:55:27;;;;;;;10.85;9.75;;;;;;;30.41;40.18;100728.22;4773805;30;20052;-73
2021/06/10 10:58:32;;;;;;;11.40;9.50;;;;;;;30.40;40.68;100739.53;4772565;30;20055;-77
2021/06/10 11:01:37;;;;;;;13.35;11.63;;;;;;;30.04;41.66;100744.53;4773258;30;20071;-74
2021/06/10 11:04:51;;;;;;;13.60;11.65;;;;;;;30.06;41.29;100731.28;4773190;30;20048;-74
2021/06/10 11:07:56;;;;;;;14.93;13.32;;;;;;;29.63;42.84;100739.34;4773207;30;20048;-75
2021/06/10 11:11:02;;;;;;;19.23;17.33;;;;;;;29.43;44.40;100730.72;4773157;30;20438;-73
2021/06/10 11:14:33;;;;;;;18.08;16.27;;;;;;;29.24;45.66;100734.75;4773267;30;20051;-75
2021/06/10 11:17:44;;;;;;;20.63;18.63;;;;;;;28.98;46.22;100731.50;4773077;30;20056;-73
2021/06/10 11:20:49;;;;;;;20.92;17.50;;;;;;;28.66;47.92;100718.34;4773066;30;20051;-75
2021/06/10 11:24:16;;;;;;;20.55;17.38;;;;;;;28.51;49.19;100726.28;4773044;30;20056;-75
2021/06/10 11:27:46;;;;;;;20.90;18.35;;;;;;;28.45;48.72;100718.94;4773087;30;20047;-75
2021/06/10 11:30:54;;;;;;;20.25;18.33;;;;;;;28.30;49.62;100717.53;4773203;30;20048;-75
2021/06/10 11:34:31;;;;;;;18.70;16.75;;;;;;;28.37;50.16;100718.25;4773013;30;20460;-76
2021/06/10 11:37:36;;;;;;;19.23;17.30;;;;;;;28.39;49.03;100718.03;4772852;30;20047;-76
2021/06/10 11:40:44;;;;;;;19.77;16.95;;;;;;;28.33;49.22;100721.75;4772016;30;20063;-76
2021/06/10 11:43:58;;;;;;;18.38;16.45;;;;;;;27.97;49.40;100713.69;4773039;30;20389;-77
2021/06/10 11:47:02;;;;;;;17.85;16.15;;;;;;;27.92;49.77;100708.88;4780921;30;20051;-75
2021/06/10 11:50:29;;;;;;;17.10;15.32;;;;;;;28.12;49.26;100703.84;4790596;30;20456;-76
2021/06/10 11:53:34;;;;;;;18.10;16.40;;;;;;;28.07;47.57;100700.16;4790347;30;20055;-75
2021/06/10 11:56:41;;;;;;;16.85;15.27;;;;;;;28.02;48.43;100698.09;4790592;30;20047;-76
2021/06/10 11:59:46;;;;;;;19.13;17.40;;;;;;;28.09;49.01;100703.50;4779038;30;20047;-74
2021/06/10 12:02:55;;;;;;;17.70;16.08;;;;;;;28.15;49.43;100702.53;4790079;30;20051;-74
2021/06/10 12:06:00;;;;;;;18.65;16.95;;;;;;;28.09;48.55;100698.00;4790325;30;20475;-74
2021/06/10 12:09:12;;;;;;;16.90;15.18;;;;;;;28.23;49.10;100691.13;4790364;30;20051;-73
2021/06/10 12:12:52;;;;;;;16.95;15.23;;;;;;;28.28;47.28;100680.19;4790331;30;20047;-74
2021/06/10 12:15:59;;;;;;;17.23;12.85;;;;;;;28.26;48.02;100680.47;4790085;30;20047;-74
2021/06/10 12:19:03;;;;;;;15.05;13.70;;;;;;;28.28;48.64;100681.03;4789963;30;20047;-74
2021/06/10 12:22:08;;;;;;;14.85;11.38;;;;;;;28.50;49.58;100672.94;4789953;30;20047;-74
2021/06/10 12:25:21;;;;;;;15.73;13.52;;;;;;;28.41;47.87;100663.38;4789885;30;20139;-74
2021/06/10 12:28:28;;;;;;;15.95;14.27;;;;;;;28.44;48.50;100657.38;4789802;30;20052;-73
2021/06/10 12:31:37;;;;;;;15.00;13.50;;;;;;;28.40;48.71;100664.44;4789876;30;20477;-74
2021/06/10 12:34:56;;;;;;;16.38;14.02;;;;;;;28.49;48.53;100662.16;4778785;30;20043;-74
2021/06/10 12:38:00;;;;;;;17.17;14.38;;;;;;;28.62;48.17;100654.44;4789799;30;20051;-74
2021/06/10 12:41:20;;;;;;;18.25;14.13;;;;;;;28.49;47.78;100646.44;4789322;30;20055;-74
2021/06/10 12:44:27;;;;;;;11.90;10.68;;;;;;;28.60;48.11;100641.94;4789711;30;20479;-73
2021/06/10 12:47:33;;;;;;;12.98;11.35;;;;;;;28.55;47.71;100648.19;4789052;30;20051;-73
2021/06/10 12:50:37;;;;;;;14.85;13.23;;;;;;;28.41;46.60;100634.91;4789433;30;20051;-74
2021/06/10 12:53:56;;;;;;;14.70;13.23;;;;;;;28.39;47.62;100635.16;4788766;29;20039;-73
2021/06/10 12:57:02;;;;;;;21.38;11.82;;;;;;;28.45;47.27;100631.41;4789588;30;20051;-73
2021/06/10 13:00:31;;;;;;;11.68;10.48;;;;;;;28.35;45.82;100643.09;4789369;30;20055;-74
2021/06/10 13:03:50;;;;;;;11.38;10.18;;;;;;;28.37;46.83;100629.03;4789390;30;20051;-74
2021/06/10 13:06:54;;;;;;;11.85;9.70;;;;;;;28.40;46.21;100623.03;4789221;30;20051;-73
2021/06/10 13:10:01;;;;;;;15.95;11.95;;;;;;;28.44;45.48;100629.75;4789121;30;20050;-73
2021/06/10 13:13:10;;;;;;;14.10;7.97;;;;;;;28.46;45.25;100626.72;4789002;30;20055;-74
2021/06/10 13:16:16;;;;;;;9.75;8.63;;;;;;;28.62;44.18;100625.97;4789475;30;20078;-73
2021/06/10 13:19:24;;;;;;;10.07;8.77;;;;;;;28.51;44.37;100613.88;4777606;30;20055;-74
2021/06/10 13:22:28;;;;;;;9.88;8.43;;;;;;;28.61;45.01;100614.13;4777867;30;20059;-73
2021/06/10 13:25:32;;;;;;;14.07;10.05;;;;;;;28.59;44.63;100613.47;4788932;30;20062;-73
2021/06/10 13:28:38;;;;;;;9.10;8.15;;;;;;;28.65;45.39;100615.28;4788847;30;20051;-73
2021/06/10 13:31:44;;;;;;;11.48;8.98;;;;;;;28.62;44.75;100615.78;4788954;30;20391;-72
2021/06/10 13:34:57;;;;;;;9.93;8.68;;;;;;;28.78;46.69;100609.47;4788998;30;20468;-73
2021/06/10 13:38:02;;;;;;;9.70;8.70;;;;;;;28.87;46.57;100613.50;4788855;30;20058;-74
2021/06/10 13:41:07;;;;;;;10.70;9.50;;;;;;;28.69;46.55;100604.59;4788692;30;20083;-73
2021/06/10 13:44:11;;;;;;;10.68;8.40;;;;;;;28.54;46.83;100607.03;4788657;30;20444;-74
2021/06/10 13:47:17;;;;;;;14.05;8.55;;;;;;;28.48;47.00;100603.31;4788144;30;20054;-73
2021/06/10 13:50:22;;;;;;;9.85;8.70;;;;;;;28.51;47.79;100599.22;4777553;30;20055;-74
2021/06/10 13:53:28;;;;;;;9.85;8.68;;;;;;;28.47;47.17;100593.31;4788493;30;20498;-74
2021/06/10 13:56:34;;;;;;;13.25;7.70;;;;;;;28.57;46.78;100588.00;4788530;30;20127;-73
2021/06/10 13:59:39;;;;;;;17.25;8.30;;;;;;;28.62;46.68;100596.44;4788569;30;20058;-73
2021/06/10 14:02:44;;;;;;;8.70;7.50;;;;;;;28.72;46.42;100582.81;4788620;30;20063;-73
2021/06/10 14:05:49;;;;;;;13.85;6.90;;;;;;;28.65;45.42;100573.84;4788247;30;20368;-75
2021/06/10 14:08:54;;;;;;;11.88;8.10;;;;;;;28.51;44.72;100577.97;4788436;30;20051;-73
2021/06/10 14:11:58;;;;;;;8.25;7.47;;;;;;;28.46;45.33;100577.00;4788356;30;20178;-73